Time;durP1;ratioP1;P1;durP2;ratioP2;P2;SDS_P1;SDS_P2;PMS_P1;PMS_P2;Temp;Humidity;BMP_temperature;BMP_pressure;BME280_temperature;BME280_humidity;BME280_pressure;Samples;Min_cycle;Max_cycle;Signal;HPM_P1;HPM_P2
2021/11/08 00:01:28;;;;;;;;;63.50;52.25;12.80;68.10;;;;;;5014807;28;8797;-57
2021/11/08 00:03:54;;;;;;;;;65.50;54.00;13.00;67.50;;;;;;5014189;28;8826;-57
2021/11/08 00:06:20;;;;;;;;;61.50;51.25;13.20;66.30;;;;;;5015092;28;8794;-58
2021/11/08 00:08:46;;;;;;;;;63.50;52.50;13.20;66.30;;;;;;5015316;28;8789;-58
2021/11/08 00:11:12;;;;;;;;;58.25;49.25;13.20;66.50;;;;;;5046681;28;8794;-59
2021/11/08 00:13:38;;;;;;;;;63.00;52.50;13.30;66.20;;;;;;5015236;28;8789;-59
2021/11/08 00:18:44;;;;;;;;;57.25;48.75;13.10;66.40;;;;;;5015113;28;8814;-58
2021/11/08 00:21:10;;;;;;;;;59.50;50.50;13.10;66.70;;;;;;5014895;28;8778;-59
2021/11/08 00:23:37;;;;;;;;;59.50;49.25;13.10;66.40;;;;;;5014671;28;8944;-60
2021/11/08 00:26:04;;;;;;;;;60.50;50.50;13.20;65.90;;;;;;5014841;28;9412;-58
2021/11/08 00:28:30;;;;;;;;;60.25;49.25;13.00;66.50;;;;;;5014803;28;8774;-59
2021/11/08 00:30:56;;;;;;;;;51.00;43.50;12.80;66.50;;;;;;5014717;28;8802;-62
2021/11/08 00:33:23;;;;;;;;;51.00;44.00;12.40;67.40;;;;;;5013669;28;8940;-61
2021/11/08 00:35:52;;;;;;;;;57.50;49.00;12.10;68.60;;;;;;5014944;28;8781;-59
2021/11/08 00:38:19;;;;;;;;;47.50;41.75;12.30;68.60;;;;;;5014591;28;8892;-60
2021/11/08 00:40:45;;;;;;;;;55.75;47.75;12.30;68.40;;;;;;5014715;28;8774;-59
2021/11/08 00:43:15;;;;;;;;;60.50;49.75;12.40;67.90;;;;;;5014220;28;8770;-60
2021/11/08 00:45:41;;;;;;;;;56.75;48.50;12.70;67.40;;;;;;5014585;28;8883;-58
2021/11/08 00:48:09;;;;;;;;;61.00;51.00;12.80;67.20;;;;;;5014525;28;8794;-59
2021/11/08 00:50:36;;;;;;;;;56.00;48.00;12.60;67.30;;;;;;5014796;28;8782;-59
2021/11/08 00:53:02;;;;;;;;;59.50;50.50;12.20;68.40;;;;;;5014756;28;8808;-60
2021/11/08 00:55:30;;;;;;;;;65.50;52.75;12.50;68.20;;;;;;5014470;28;8805;-57
2021/11/08 00:57:58;;;;;;;;;58.00;48.50;12.60;67.70;;;;;;5014722;28;8790;-59
2021/11/08 01:00:27;;;;;;;;;61.25;51.25;12.10;68.90;;;;;;5014573;28;8828;-60
2021/11/08 01:02:53;;;;;;;;;63.00;51.50;12.00;69.80;;;;;;5014667;28;8802;-58
2021/11/08 01:05:20;;;;;;;;;65.25;54.25;12.10;69.80;;;;;;5014304;28;8773;-59
2021/11/08 01:07:46;;;;;;;;;63.50;52.25;12.00;69.80;;;;;;5014587;28;8824;-60
2021/11/08 01:10:16;;;;;;;;;58.50;49.50;12.10;69.40;;;;;;5014411;28;8812;-58
2021/11/08 01:12:42;;;;;;;;;54.00;45.00;12.50;68.30;;;;;;5014285;28;8761;-58
2021/11/08 01:15:10;;;;;;;;;63.50;52.00;12.10;69.50;;;;;;5014534;28;8769;-59
2021/11/08 01:17:37;;;;;;;;;60.00;51.00;12.30;68.80;;;;;;5014275;28;8813;-59
2021/11/08 01:20:06;;;;;;;;;66.25;53.50;12.20;69.20;;;;;;5014389;28;8875;-59
2021/11/08 01:22:32;;;;;;;;;68.25;55.25;12.60;68.10;;;;;;5014226;28;9439;-58
2021/11/08 01:24:59;;;;;;;;;57.50;49.25;12.20;69.30;;;;;;5014197;28;8754;-58
2021/11/08 01:27:34;;;;;;;;;64.50;54.25;12.10;69.70;;;;;;5014217;28;8847;-58
2021/11/08 01:30:05;;;;;;;;;66.50;55.25;12.20;69.50;;;;;;5014276;28;8855;-58
2021/11/08 01:32:32;;;;;;;;;67.75;55.00;12.30;70.10;;;;;;5014111;28;8820;-60
2021/11/08 01:34:58;;;;;;;;;64.00;53.25;12.30;69.30;;;;;;5014474;28;8773;-58
2021/11/08 01:37:24;;;;;;;;;69.50;56.00;12.30;69.20;;;;;;5014370;28;9479;-57
2021/11/08 01:39:51;;;;;;;;;68.75;56.25;12.30;69.10;;;;;;5014035;28;8824;-58
2021/11/08 01:42:17;;;;;;;;;64.75;52.75;12.10;69.80;;;;;;5013988;28;8782;-58
2021/11/08 01:44:44;;;;;;;;;65.75;55.00;11.60;72.00;;;;;;5014006;28;8778;-59
2021/11/08 01:47:10;;;;;;;;;67.25;55.00;11.60;71.90;;;;;;5013973;28;8765;-58
2021/11/08 01:49:38;;;;;;;;;66.50;54.75;11.50;72.10;;;;;;5014225;28;8808;-59
2021/11/08 01:52:06;;;;;;;;;69.25;56.00;12.00;71.50;;;;;;5014234;28;8766;-58
2021/11/08 01:54:33;;;;;;;;;67.00;54.50;12.40;69.80;;;;;;5014877;28;8778;-58
2021/11/08 01:56:59;;;;;;;;;68.50;55.75;12.60;68.80;;;;;;5017533;28;8758;-58
2021/11/08 01:59:26;;;;;;;;;70.25;56.50;12.70;68.80;;;;;;5017230;28;8833;-60
2021/11/08 02:01:54;;;;;;;;;70.50;56.50;12.80;68.30;;;;;;5017325;28;8758;-57
2021/11/08 02:04:21;;;;;;;;;67.50;55.50;13.00;67.80;;;;;;5032642;28;8806;-58
2021/11/08 02:06:47;;;;;;;;;64.50;54.25;12.60;68.30;;;;;;5017485;28;8762;-59
2021/11/08 02:09:13;;;;;;;;;69.00;56.75;12.40;69.70;;;;;;5017451;28;8786;-58
2021/11/08 02:11:39;;;;;;;;;66.25;53.25;12.60;69.00;;;;;;5015430;28;8778;-59
2021/11/08 02:14:06;;;;;;;;;70.00;56.00;12.60;68.50;;;;;;5017385;28;8766;-60
2021/11/08 02:16:34;;;;;;;;;68.75;54.75;12.70;68.40;;;;;;5017049;28;8780;-58
2021/11/08 02:19:02;;;;;;;;;65.75;55.00;12.80;68.40;;;;;;5016969;28;8808;-57
2021/11/08 02:21:28;;;;;;;;;68.75;55.25;12.60;68.70;;;;;;5016958;28;8880;-59
2021/11/08 02:23:55;;;;;;;;;65.50;54.25;12.00;70.30;;;;;;5016684;28;8836;-59
2021/11/08 02:26:21;;;;;;;;;66.50;55.25;11.90;71.30;;;;;;5017120;28;8789;-58
2021/11/08 02:28:49;;;;;;;;;63.75;53.00;11.90;71.10;;;;;;5016755;28;9474;-57
2021/11/08 02:31:19;;;;;;;;;66.00;54.00;12.20;70.30;;;;;;5016761;28;8896;-59
2021/11/08 02:33:48;;;;;;;;;72.25;59.50;12.30;70.40;;;;;;5016984;28;8895;-57
2021/11/08 02:36:14;;;;;;;;;67.00;54.75;12.40;69.60;;;;;;5016707;28;9272;-57
2021/11/08 02:38:45;;;;;;;;;69.00;57.00;12.40;69.90;;;;;;5016791;28;8826;-58
2021/11/08 02:41:11;;;;;;;;;63.75;52.25;12.50;69.20;;;;;;5016670;28;8765;-57
2021/11/08 02:43:39;;;;;;;;;69.25;56.00;12.40;69.50;;;;;;5016653;28;8917;-58
2021/11/08 02:46:11;;;;;;;;;62.00;52.50;12.20;69.80;;;;;;5017056;28;8777;-58
2021/11/08 02:48:38;;;;;;;;;66.25;54.25;12.20;69.80;;;;;;5016456;28;8782;-60
2021/11/08 02:51:23;;;;;;;;;63.25;53.50;12.30;69.80;;;;;;5016706;28;8885;-60
2021/11/08 02:53:58;;;;;;;;;68.75;56.00;12.30;69.20;;;;;;5016383;28;8774;-58
2021/11/08 02:56:24;;;;;;;;;69.25;56.50;12.10;70.50;;;;;;5016329;28;8781;-60
2021/11/08 02:58:50;;;;;;;;;65.00;54.25;12.40;69.90;;;;;;5016141;28;8897;-60
2021/11/08 03:01:20;;;;;;;;;62.75;51.25;12.40;70.00;;;;;;5015219;28;8810;-58
2021/11/08 03:03:57;;;;;;;;;66.00;53.75;12.10;70.40;;;;;;5016689;28;8840;-57
2021/11/08 03:06:32;;;;;;;;;65.75;54.75;12.40;70.10;;;;;;5015962;28;8790;-57
2021/11/08 03:09:23;;;;;;;;;70.50;56.25;11.90;71.00;;;;;;5016375;28;9424;-57
2021/11/08 03:11:49;;;;;;;;;65.25;55.25;12.10;70.90;;;;;;5016394;28;8765;-57
2021/11/08 03:14:19;;;;;;;;;66.50;55.00;12.40;69.90;;;;;;5015986;28;9430;-59
2021/11/08 03:16:57;;;;;;;;;67.75;55.00;12.40;69.70;;;;;;5015942;28;8781;-57
2021/11/08 03:19:31;;;;;;;;;67.75;54.25;12.20;70.30;;;;;;5015940;28;8907;-58
2021/11/08 03:21:59;;;;;;;;;70.00;56.50;12.30;70.10;;;;;;5015649;28;8855;-60
2021/11/08 03:27:26;;;;;;;;;72.25;57.75;12.40;69.70;;;;;;5015830;28;8746;-56
2021/11/08 03:29:53;;;;;;;;;64.00;52.75;12.30;69.70;;;;;;5015696;28;8805;-58
2021/11/08 03:32:20;;;;;;;;;71.00;56.25;12.20;70.10;;;;;;5015525;28;8868;-58
2021/11/08 03:34:58;;;;;;;;;69.00;56.00;12.10;70.30;;;;;;5015835;28;8876;-58
2021/11/08 03:37:24;;;;;;;;;68.25;56.50;11.90;71.20;;;;;;5015858;28;8762;-58
2021/11/08 03:39:51;;;;;;;;;63.75;53.75;11.60;72.20;;;;;;5015683;28;8852;-59
2021/11/08 03:42:18;;;;;;;;;64.00;52.00;11.80;72.10;;;;;;5015530;28;8859;-58
2021/11/08 03:44:44;;;;;;;;;65.75;55.00;11.90;71.70;;;;;;5015463;28;8790;-57
2021/11/08 03:47:10;;;;;;;;;62.75;52.25;12.40;70.50;;;;;;5015621;28;9435;-59
2021/11/08 03:49:37;;;;;;;;;65.25;53.00;12.80;68.90;;;;;;5015575;28;8789;-58
2021/11/08 03:52:03;;;;;;;;;64.75;54.00;12.80;68.40;;;;;;5015594;28;8917;-58
2021/11/08 03:54:29;;;;;;;;;68.00;56.00;12.80;68.60;;;;;;5015509;28;8777;-59
2021/11/08 03:56:55;;;;;;;;;64.00;52.50;12.60;68.70;;;;;;5015294;28;8789;-57
2021/11/08 03:59:22;;;;;;;;;62.75;53.00;12.40;69.60;;;;;;5015059;28;8817;-58
2021/11/08 04:01:48;;;;;;;;;57.50;49.25;12.70;69.00;;;;;;5015438;28;8804;-58
2021/11/08 04:04:14;;;;;;;;;67.50;55.25;12.70;69.00;;;;;;5015451;28;8906;-58
2021/11/08 04:06:41;;;;;;;;;61.50;51.75;12.80;68.60;;;;;;5015046;28;8766;-58
2021/11/08 04:09:11;;;;;;;;;63.75;52.00;12.50;69.30;;;;;;5015248;28;8838;-58
2021/11/08 04:11:38;;;;;;;;;66.25;53.00;12.40;69.60;;;;;;5015225;28;8801;-58
2021/11/08 04:14:05;;;;;;;;;66.75;55.25;12.60;69.30;;;;;;5014942;28;8888;-57
2021/11/08 04:16:33;;;;;;;;;65.25;53.50;12.60;68.80;;;;;;5014777;28;8761;-58
2021/11/08 04:19:01;;;;;;;;;64.25;53.50;12.70;68.60;;;;;;5014545;28;8928;-57
2021/11/08 04:21:28;;;;;;;;;64.75;53.25;12.50;69.30;;;;;;5015101;28;8832;-58
2021/11/08 04:23:54;;;;;;;;;71.25;57.25;12.50;69.60;;;;;;5014646;28;8883;-57
2021/11/08 04:26:23;;;;;;;;;65.50;53.25;12.50;69.20;;;;;;5015082;28;8789;-58
2021/11/08 04:28:56;;;;;;;;;67.75;55.25;12.40;69.80;;;;;;5014763;28;8789;-57
2021/11/08 04:31:24;;;;;;;;;64.25;53.00;12.30;70.90;;;;;;5014830;28;8854;-58
2021/11/08 04:33:55;;;;;;;;;61.25;51.75;12.20;70.80;;;;;;5014316;28;8816;-57
2021/11/08 04:36:42;;;;;;;;;61.75;52.00;12.40;70.50;;;;;;5014770;28;8962;-59
2021/11/08 04:39:22;;;;;;;;;64.25;53.00;12.60;69.60;;;;;;5014551;28;8887;-56
2021/11/08 04:47:39;;;;;;;;;63.25;52.00;12.50;70.00;;;;;;5014889;28;8762;-58
2021/11/08 04:50:29;;;;;;;;;60.50;51.00;12.70;69.30;;;;;;5014510;28;8800;-58
2021/11/08 04:53:13;;;;;;;;;63.25;52.75;12.70;69.10;;;;;;5014889;28;8781;-58
2021/11/08 05:28:31;;;;;;;;;60.50;50.00;12.30;71.30;;;;;;5014905;28;9474;-56
2021/11/08 05:30:57;;;;;;;;;57.25;47.25;12.60;70.50;;;;;;5018210;28;8940;-56
2021/11/08 05:33:23;;;;;;;;;55.75;47.25;12.30;71.00;;;;;;5018081;28;8952;-58
2021/11/08 05:35:49;;;;;;;;;61.50;50.25;12.50;70.40;;;;;;5017877;28;8799;-57
2021/11/08 05:38:15;;;;;;;;;57.50;48.50;12.60;70.10;;;;;;5018105;28;8774;-57
2021/11/08 05:40:41;;;;;;;;;59.25;48.00;12.30;70.80;;;;;;5017723;28;8806;-56
2021/11/08 05:43:07;;;;;;;;;58.25;49.25;11.90;72.20;;;;;;5017661;28;8781;-58
2021/11/08 05:45:35;;;;;;;;;58.75;49.50;11.80;73.00;;;;;;5017662;28;8778;-56
2021/11/08 05:48:05;;;;;;;;;62.25;51.75;11.90;73.20;;;;;;5017643;28;8769;-58
2021/11/08 05:50:33;;;;;;;;;55.50;47.50;12.10;72.50;;;;;;5016603;28;8853;-57
2021/11/08 05:52:59;;;;;;;;;54.00;45.00;12.20;71.90;;;;;;5017535;28;8781;-57
2021/11/08 06:50:38;;;;;;;;;68.75;57.25;12.50;70.60;;;;;;4975569;28;9428;-59
2021/11/08 06:53:07;;;;;;;;;68.25;56.25;12.30;70.80;;;;;;4975328;28;8811;-60
2021/11/08 06:55:34;;;;;;;;;63.25;52.00;12.30;71.50;;;;;;4975270;28;8793;-58
2021/11/08 06:58:03;;;;;;;;;57.00;47.25;12.20;72.00;;;;;;4975262;28;8765;-64
2021/11/08 07:00:29;;;;;;;;;58.50;50.00;12.50;71.10;;;;;;4974973;28;8824;-64
2021/11/08 07:02:55;;;;;;;;;57.50;48.50;12.70;70.40;;;;;;4975053;28;8817;-63
2021/11/08 07:05:21;;;;;;;;;60.00;49.75;12.60;70.80;;;;;;4974914;28;8806;-63
2021/11/08 07:07:47;;;;;;;;;60.25;50.25;12.60;70.30;;;;;;4974890;28;9577;-63
2021/11/08 07:10:13;;;;;;;;;64.75;54.00;12.80;69.60;;;;;;4975001;28;8776;-64
2021/11/08 07:12:39;;;;;;;;;61.75;51.50;13.00;69.00;;;;;;4974899;28;8793;-64
2021/11/08 07:15:06;;;;;;;;;58.50;50.00;12.90;70.10;;;;;;4974979;28;8896;-64
2021/11/08 07:17:33;;;;;;;;;65.50;55.00;13.10;69.50;;;;;;4974826;28;8875;-64
2021/11/08 07:20:00;;;;;;;;;63.25;53.00;13.00;69.50;;;;;;5015846;28;8818;-62
2021/11/08 07:22:29;;;;;;;;;61.75;51.25;13.00;69.60;;;;;;5015591;28;8908;-66
2021/11/08 07:24:55;;;;;;;;;68.00;56.00;13.10;69.50;;;;;;5014605;28;8829;-65
2021/11/08 07:27:21;;;;;;;;;58.50;49.25;13.10;69.40;;;;;;5015737;28;8789;-65
2021/11/08 07:29:47;;;;;;;;;59.25;50.00;13.20;68.70;;;;;;5015839;28;8805;-67
2021/11/08 07:32:13;;;;;;;;;64.50;51.50;12.90;69.90;;;;;;5015355;28;8781;-65
2021/11/08 07:34:39;;;;;;;;;57.25;48.75;12.80;70.30;;;;;;5015633;28;8870;-68
2021/11/08 07:37:06;;;;;;;;;58.00;49.50;12.60;71.20;;;;;;5015597;28;8766;-66
2021/11/08 07:39:33;;;;;;;;;67.00;54.25;12.50;71.40;;;;;;5015844;28;8824;-65
2021/11/08 07:41:58;;;;;;;;;59.25;48.75;12.60;71.60;;;;;;5018302;28;8777;-62
2021/11/08 07:44:24;;;;;;;;;61.50;49.00;12.40;72.00;;;;;;5018933;28;8794;-67
2021/11/08 07:46:51;;;;;;;;;59.75;50.00;12.50;72.10;;;;;;5016719;28;8774;-65
2021/11/08 07:49:17;;;;;;;;;58.50;49.25;12.30;72.90;;;;;;5015446;28;8809;-66
2021/11/08 07:51:43;;;;;;;;;57.75;48.00;12.10;73.40;;;;;;5014703;28;8789;-66
2021/11/08 07:54:08;;;;;;;;;53.25;44.25;12.40;73.30;;;;;;5015146;28;8770;-66
2021/11/08 07:56:34;;;;;;;;;58.00;48.25;11.90;74.30;;;;;;5015320;28;8773;-67
2021/11/08 07:59:00;;;;;;;;;51.75;44.75;12.30;73.80;;;;;;5015060;28;8866;-66
2021/11/08 08:01:26;;;;;;;;;61.25;51.25;12.50;72.80;;;;;;5014989;28;8813;-68
2021/11/08 08:03:52;;;;;;;;;57.75;48.50;12.50;72.50;;;;;;5015462;28;8805;-68
2021/11/08 08:06:18;;;;;;;;;51.75;45.00;12.30;73.40;;;;;;5015119;28;8777;-67
2021/11/08 08:08:48;;;;;;;;;56.00;47.25;12.30;73.60;;;;;;5015071;28;8770;-68
2021/11/08 08:11:16;;;;;;;;;54.75;47.00;12.40;73.20;;;;;;5015306;28;8804;-67
2021/11/08 08:13:43;;;;;;;;;53.25;44.50;12.30;73.30;;;;;;5015084;28;8758;-64
2021/11/08 08:16:12;;;;;;;;;52.25;43.50;12.40;73.20;;;;;;5015087;28;8753;-65
2021/11/08 08:18:38;;;;;;;;;61.75;52.50;12.50;72.70;;;;;;5015036;28;8847;-66
2021/11/08 08:21:06;;;;;;;;;62.25;51.25;12.70;72.40;;;;;;5013806;28;9523;-69
2021/11/08 08:23:33;;;;;;;;;71.00;58.00;13.20;71.20;;;;;;5012866;28;8798;-77
2021/11/08 08:26:00;;;;;;;;;70.50;58.00;13.30;70.40;;;;;;5015145;28;8847;-69
2021/11/08 08:28:25;;;;;;;;;78.00;64.25;13.40;70.00;;;;;;5015137;28;8805;-63
2021/11/08 08:30:52;;;;;;;;;74.00;61.25;13.50;69.30;;;;;;5014718;28;8789;-68
2021/11/08 08:33:18;;;;;;;;;75.75;62.25;13.60;69.10;;;;;;5014923;28;8802;-69
2021/11/08 08:35:44;;;;;;;;;78.75;65.75;13.70;69.00;;;;;;5014649;28;8781;-69
2021/11/08 08:38:14;;;;;;;;;73.00;60.00;13.80;68.70;;;;;;5013682;28;8808;-69
2021/11/08 08:40:41;;;;;;;;;75.00;62.50;13.70;68.80;;;;;;5014665;28;8903;-70
2021/11/08 08:43:08;;;;;;;;;77.50;63.25;13.60;69.40;;;;;;5014737;28;8773;-67
2021/11/08 08:45:36;;;;;;;;;82.00;69.75;13.60;69.30;;;;;;5014437;28;8773;-66
2021/11/08 08:48:03;;;;;;;;;84.00;75.00;13.70;69.30;;;;;;5014565;28;8875;-65
2021/11/08 08:50:29;;;;;;;;;80.00;68.75;13.80;68.80;;;;;;5014354;28;8793;-66
2021/11/08 08:52:55;;;;;;;;;73.00;60.00;13.70;69.00;;;;;;5014557;28;8808;-68
2021/11/08 08:55:21;;;;;;;;;76.75;63.75;13.60;69.30;;;;;;5014351;28;8785;-73
2021/11/08 08:57:47;;;;;;;;;78.50;66.50;13.60;69.20;;;;;;5014786;28;8776;-72
2021/11/08 09:00:16;;;;;;;;;77.25;62.25;13.70;68.90;;;;;;5014622;28;8841;-69
2021/11/08 09:02:41;;;;;;;;;62.50;51.75;13.60;68.90;;;;;;5014673;28;8848;-69
2021/11/08 09:05:09;;;;;;;;;68.75;56.00;13.00;70.70;;;;;;5017288;28;8770;-65
2021/11/08 09:07:36;;;;;;;;;69.00;55.50;12.90;71.70;;;;;;5018345;28;8884;-65
2021/11/08 09:10:02;;;;;;;;;67.75;55.25;13.00;71.70;;;;;;5018313;28;8774;-65
2021/11/08 09:12:28;;;;;;;;;66.00;53.25;12.80;72.10;;;;;;5018167;28;8757;-66
2021/11/08 09:14:53;;;;;;;;;70.75;56.00;12.70;72.90;;;;;;5018202;28;8802;-66
2021/11/08 09:17:19;;;;;;;;;69.50;57.50;12.30;74.00;;;;;;5018308;28;8774;-63
2021/11/08 09:19:45;;;;;;;;;70.25;56.25;12.30;74.30;;;;;;5017476;28;8814;-64
2021/11/08 09:22:13;;;;;;;;;66.25;54.00;12.30;75.30;;;;;;5017760;28;8863;-64
2021/11/08 09:24:40;;;;;;;;;69.00;57.00;12.60;73.80;;;;;;5018025;28;8789;-66
2021/11/08 09:27:07;;;;;;;;;59.50;49.75;12.60;73.60;;;;;;5017259;28;9689;-67
2021/11/08 09:29:33;;;;;;;;;69.00;55.50;12.70;73.00;;;;;;5016982;28;8891;-66
2021/11/08 09:31:59;;;;;;;;;69.00;55.00;12.70;73.60;;;;;;5017595;28;8786;-64
2021/11/08 09:34:25;;;;;;;;;68.50;56.00;13.10;72.30;;;;;;5016901;28;8822;-67
2021/11/08 09:36:57;;;;;;;;;67.75;55.50;13.40;71.10;;;;;;5017643;28;8884;-65
2021/11/08 09:39:25;;;;;;;;;73.25;59.00;13.30;70.90;;;;;;5017699;28;8837;-66
2021/11/08 09:41:56;;;;;;;;;72.25;57.75;13.60;70.40;;;;;;5017420;28;8916;-64
2021/11/08 09:44:22;;;;;;;;;79.75;66.75;13.90;69.50;;;;;;5017699;28;8778;-65
2021/11/08 09:46:52;;;;;;;;;82.75;70.00;13.80;69.40;;;;;;5017119;28;8785;-64
2021/11/08 09:49:19;;;;;;;;;77.75;68.50;13.70;69.80;;;;;;5016538;28;8765;-65
2021/11/08 09:51:46;;;;;;;;;79.00;66.50;13.70;70.20;;;;;;5017152;28;8790;-65
2021/11/08 09:54:14;;;;;;;;;85.25;75.25;13.80;69.70;;;;;;5016393;28;8809;-64
2021/11/08 09:56:42;;;;;;;;;83.25;76.00;13.80;69.80;;;;;;5010174;28;8796;-64
2021/11/08 09:59:08;;;;;;;;;80.75;66.75;13.70;70.00;;;;;;5016636;28;8821;-67
2021/11/08 10:01:38;;;;;;;;;77.75;63.50;13.40;70.60;;;;;;5017207;28;8777;-66
2021/11/08 10:04:06;;;;;;;;;76.25;62.00;13.30;71.40;;;;;;5016654;28;9558;-66
2021/11/08 10:06:32;;;;;;;;;81.75;69.75;13.50;71.10;;;;;;5015625;28;8810;-63
2021/11/08 10:08:59;;;;;;;;;75.00;61.75;13.50;70.90;;;;;;5006951;28;8769;-64
2021/11/08 10:11:26;;;;;;;;;81.50;74.75;13.60;70.50;;;;;;5007108;28;8785;-65
2021/11/08 10:13:53;;;;;;;;;80.00;70.00;13.80;70.50;;;;;;5014049;28;8758;-65
2021/11/08 10:16:28;;;;;;;;;76.75;65.75;14.00;69.90;;;;;;5014056;28;8844;-64
2021/11/08 10:18:56;;;;;;;;;69.75;58.00;13.80;70.00;;;;;;5011658;28;8770;-64
2021/11/08 10:21:44;;;;;;;;;77.50;65.00;14.10;69.20;;;;;;5016283;28;8758;-64
2021/11/08 10:24:39;;;;;;;;;74.25;60.25;14.40;68.60;;;;;;5016813;28;8841;-64
2021/11/08 10:27:11;;;;;;;;;79.75;70.00;14.30;68.70;;;;;;4974175;28;8771;-64
2021/11/08 10:29:47;;;;;;;;;80.75;71.25;14.40;68.40;;;;;;4970119;28;8797;-64
2021/11/08 10:32:13;;;;;;;;;77.75;67.75;14.30;68.60;;;;;;4974408;28;8824;-64
2021/11/08 10:34:56;;;;;;;;;76.50;62.75;14.30;68.00;;;;;;4975619;28;8782;-64
2021/11/08 10:37:25;;;;;;;;;73.50;60.50;14.30;67.90;;;;;;4975365;28;8852;-63
2021/11/08 10:39:52;;;;;;;;;79.50;70.25;14.30;68.00;;;;;;4974869;28;8818;-64
2021/11/08 10:42:25;;;;;;;;;78.00;67.75;14.50;67.70;;;;;;4972201;28;8789;-66
2021/11/08 10:44:51;;;;;;;;;75.25;59.75;14.50;67.80;;;;;;4970925;28;8798;-63
2021/11/08 10:47:20;;;;;;;;;73.25;58.00;14.10;67.70;;;;;;4953713;28;8829;-64
2021/11/08 10:49:48;;;;;;;;;67.25;56.00;14.00;68.70;;;;;;4974878;28;8770;-63
2021/11/08 10:52:19;;;;;;;;;67.25;55.25;13.60;69.50;;;;;;4975568;28;8885;-64
2021/11/08 10:54:54;;;;;;;;;67.25;54.75;13.40;70.60;;;;;;4974909;28;9388;-66
2021/11/08 10:57:22;;;;;;;;;67.25;55.25;13.00;71.90;;;;;;4974732;28;8774;-70
2021/11/08 10:59:51;;;;;;;;;67.50;53.75;12.80;72.50;;;;;;4975161;28;8802;-66
2021/11/08 11:02:31;;;;;;;;;67.25;53.00;13.00;72.40;;;;;;4974976;28;8763;-66
2021/11/08 11:05:02;;;;;;;;;69.50;56.75;13.00;72.30;;;;;;5016267;28;8802;-67
2021/11/08 11:07:29;;;;;;;;;76.00;62.25;13.10;72.50;;;;;;5015616;28;8781;-66
2021/11/08 11:10:09;;;;;;;;;73.25;58.75;13.30;72.10;;;;;;5015866;28;8820;-66
2021/11/08 11:12:36;;;;;;;;;65.75;54.25;12.90;73.10;;;;;;5016046;28;8770;-65
2021/11/08 11:15:13;;;;;;;;;69.25;56.50;13.20;72.80;;;;;;5015988;28;8768;-63
2021/11/08 11:17:43;;;;;;;;;73.50;59.75;13.00;73.20;;;;;;5007220;28;8785;-69
2021/11/08 11:20:19;;;;;;;;;70.00;57.00;13.00;73.10;;;;;;5015390;28;8832;-66
2021/11/08 11:22:54;;;;;;;;;69.50;56.75;12.80;73.80;;;;;;5014979;28;8810;-65
2021/11/08 11:25:22;;;;;;;;;67.00;56.00;12.80;74.10;;;;;;5015192;28;8786;-65
2021/11/08 11:27:50;;;;;;;;;65.00;53.00;13.10;73.10;;;;;;5014434;28;8868;-65
2021/11/08 11:30:21;;;;;;;;;62.00;51.75;13.10;73.00;;;;;;5015732;28;8817;-63
2021/11/08 11:33:09;;;;;;;;;71.25;58.75;13.00;73.40;;;;;;5057868;28;13554;-63
2021/11/08 11:35:51;;;;;;;;;69.25;57.00;12.80;73.50;;;;;;5048449;28;8777;-64
2021/11/08 11:38:22;;;;;;;;;75.50;62.25;12.80;74.20;;;;;;5038322;28;8765;-62
2021/11/08 11:40:56;;;;;;;;;67.50;54.75;13.20;72.50;;;;;;5042869;28;8789;-65
2021/11/08 11:43:29;;;;;;;;;76.75;64.75;13.40;72.00;;;;;;5031809;28;8768;-66
2021/11/08 11:45:56;;;;;;;;;70.00;58.00;13.10;72.70;;;;;;5031829;28;8766;-66
2021/11/08 11:48:28;;;;;;;;;63.50;53.50;12.90;73.20;;;;;;5036212;28;8788;-65
2021/11/08 11:50:55;;;;;;;;;68.25;56.00;13.10;72.60;;;;;;5040885;28;8887;-62
2021/11/08 11:53:24;;;;;;;;;66.00;54.75;13.30;72.10;;;;;;5038274;28;8784;-63
2021/11/08 11:55:51;;;;;;;;;68.25;55.50;13.20;71.60;;;;;;5039878;28;9435;-62
2021/11/08 11:58:17;;;;;;;;;67.25;55.00;13.40;71.30;;;;;;5041597;28;8803;-60
2021/11/08 12:00:45;;;;;;;;;67.25;54.25;13.50;71.50;;;;;;5049781;28;8874;-62
2021/11/08 12:03:11;;;;;;;;;63.00;52.50;12.90;71.60;;;;;;5046970;28;8770;-62
2021/11/08 12:05:39;;;;;;;;;60.25;50.25;12.70;73.50;;;;;;5050099;28;9423;-63
2021/11/08 12:08:08;;;;;;;;;60.00;50.50;12.70;73.30;;;;;;5050165;28;8788;-64
2021/11/08 12:10:44;;;;;;;;;61.75;51.25;12.90;72.70;;;;;;5047711;28;8762;-63
2021/11/08 12:13:17;;;;;;;;;59.00;49.00;13.00;72.50;;;;;;5046769;28;8781;-66
2021/11/08 12:15:43;;;;;;;;;57.75;48.25;12.80;72.00;;;;;;5044932;28;8804;-66
2021/11/08 12:18:12;;;;;;;;;60.75;50.50;12.50;73.40;;;;;;5037374;28;8824;-63
2021/11/08 12:20:47;;;;;;;;;58.00;49.00;12.80;72.80;;;;;;5034029;28;9560;-64
2021/11/08 12:23:17;;;;;;;;;59.50;50.00;12.80;72.40;;;;;;5047311;28;8813;-66
2021/11/08 12:25:44;;;;;;;;;60.75;50.50;12.40;73.90;;;;;;5050834;28;8809;-61
2021/11/08 12:28:17;;;;;;;;;56.00;47.25;12.30;74.80;;;;;;5042653;28;8777;-60
2021/11/08 12:30:48;;;;;;;;;53.50;45.50;12.20;74.70;;;;;;5048403;28;8818;-62
2021/11/08 12:33:27;;;;;;;;;57.00;49.00;12.10;74.40;;;;;;5063503;28;8776;-63
2021/11/08 12:35:55;;;;;;;;;66.00;54.25;12.10;75.50;;;;;;5070927;28;8784;-62
2021/11/08 12:38:31;;;;;;;;;66.50;54.25;12.30;75.00;;;;;;5070640;28;8776;-62
2021/11/08 12:41:26;;;;;;;;;66.25;53.25;12.60;74.10;;;;;;5065954;28;8914;-67
2021/11/08 12:43:56;;;;;;;;;56.75;48.00;12.50;74.20;;;;;;5053300;28;8783;-64
2021/11/08 12:46:26;;;;;;;;;63.00;52.50;12.80;73.30;;;;;;5057076;28;8760;-65
2021/11/08 12:48:52;;;;;;;;;58.00;49.00;12.80;73.90;;;;;;5057257;28;8837;-64
2021/11/08 12:51:22;;;;;;;;;59.00;50.00;12.70;73.90;;;;;;5057135;28;9470;-68
2021/11/08 12:54:08;;;;;;;;;59.00;50.00;12.60;74.40;;;;;;5056918;28;8810;-68
2021/11/08 12:56:42;;;;;;;;;58.25;49.00;12.50;74.30;;;;;;5056838;28;8790;-66
2021/11/08 12:59:25;;;;;;;;;50.75;43.50;12.30;74.60;;;;;;5056850;28;8791;-64
2021/11/08 13:02:08;;;;;;;;;59.00;49.25;12.50;74.10;;;;;;5057107;28;8792;-63
2021/11/08 13:04:47;;;;;;;;;60.75;51.00;12.40;74.90;;;;;;5056742;28;8775;-65
2021/11/08 13:07:15;;;;;;;;;60.25;50.75;12.40;75.10;;;;;;5056693;28;8799;-65
2021/11/08 13:09:48;;;;;;;;;60.75;50.50;12.30;75.10;;;;;;5056799;28;9482;-67
2021/11/08 13:12:19;;;;;;;;;64.00;52.50;12.20;75.20;;;;;;5056599;28;8800;-66
2021/11/08 13:14:45;;;;;;;;;61.50;51.00;12.10;76.00;;;;;;5056787;28;9501;-68
2021/11/08 13:17:12;;;;;;;;;61.00;50.50;12.10;76.00;;;;;;5056509;28;8870;-72
2021/11/08 13:19:44;;;;;;;;;62.00;51.50;12.10;76.10;;;;;;5056457;28;8756;-75
2021/11/08 13:22:27;;;;;;;;;58.00;49.00;12.50;74.60;;;;;;5056406;28;8783;-70
2021/11/08 13:25:12;;;;;;;;;65.50;54.50;12.50;74.90;;;;;;5056678;28;8788;-68
2021/11/08 13:27:47;;;;;;;;;59.00;49.75;12.10;76.40;;;;;;5054255;28;8772;-73
2021/11/08 13:30:15;;;;;;;;;62.50;52.00;11.90;77.80;;;;;;5045292;28;8806;-74
2021/11/08 13:32:42;;;;;;;;;57.25;48.25;12.10;77.10;;;;;;5046712;28;8927;-72
2021/11/08 13:35:13;;;;;;;;;62.00;50.50;12.30;76.00;;;;;;5043825;28;8860;-72
2021/11/08 13:37:43;;;;;;;;;52.75;44.50;12.60;74.50;;;;;;5046978;28;8944;-70
2021/11/08 13:40:21;;;;;;;;;59.25;49.75;12.80;73.20;;;;;;5049164;28;8989;-72
2021/11/08 13:42:51;;;;;;;;;56.75;48.00;13.20;71.70;;;;;;5037785;28;8780;-75
2021/11/08 13:45:21;;;;;;;;;56.50;47.75;13.20;71.40;;;;;;5043443;28;8801;-71
2021/11/08 13:47:49;;;;;;;;;64.75;54.50;13.30;71.70;;;;;;5025923;28;8949;-74
2021/11/08 13:50:20;;;;;;;;;64.75;53.50;13.40;71.00;;;;;;5050824;28;8861;-68
2021/11/08 13:52:53;;;;;;;;;70.00;58.00;13.50;70.60;;;;;;5049440;28;9643;-70
2021/11/08 13:55:19;;;;;;;;;64.50;54.25;13.50;70.50;;;;;;5047416;28;8871;-71
2021/11/08 13:57:45;;;;;;;;;61.75;51.75;13.40;70.70;;;;;;5049943;28;9583;-71
2021/11/08 14:00:14;;;;;;;;;58.50;49.00;13.20;71.50;;;;;;5045184;28;8817;-71
2021/11/08 14:02:41;;;;;;;;;61.75;51.75;13.30;70.80;;;;;;5050379;28;8810;-75
2021/11/08 14:05:09;;;;;;;;;59.75;48.25;13.30;70.70;;;;;;5001234;28;8761;-64
2021/11/08 14:07:35;;;;;;;;;55.50;47.00;12.80;72.40;;;;;;5052547;28;8887;-70
2021/11/08 14:10:02;;;;;;;;;56.25;48.00;12.30;74.00;;;;;;5054676;28;8768;-71
2021/11/08 14:12:30;;;;;;;;;55.50;47.50;12.40;74.00;;;;;;4997632;28;9418;-69
2021/11/08 14:14:58;;;;;;;;;47.50;41.25;12.30;74.50;;;;;;5042926;28;9561;-71
2021/11/08 14:17:27;;;;;;;;;50.75;43.50;12.30;74.40;;;;;;5051643;28;8749;-67
2021/11/08 14:19:55;;;;;;;;;51.00;44.50;12.40;74.10;;;;;;5053112;28;8800;-73
2021/11/08 14:22:26;;;;;;;;;51.25;44.00;12.20;75.10;;;;;;5050014;28;8787;-71
2021/11/08 14:24:56;;;;;;;;;50.75;44.25;12.50;73.80;;;;;;5051489;28;8803;-70